createdAt,value
2018-12-17T00:01:02.169Z,73.50
2018-12-17T00:06:04.789Z,73.20
2018-12-17T00:11:07.789Z,73.20
2018-12-17T00:16:10.336Z,73.20
2018-12-17T00:21:16.232Z,73.60
2018-12-17T00:26:18.793Z,73.50
2018-12-17T00:31:21.342Z,73.70
2018-12-17T00:36:23.930Z,73.60
2018-12-17T00:41:27.180Z,73.60
2018-12-17T00:46:29.744Z,73.40
2018-12-17T00:51:35.692Z,73.40
2018-12-17T00:56:38.244Z,73.30
2018-12-17T01:01:40.885Z,73.10
2018-12-17T01:06:43.464Z,73.20
2018-12-17T01:11:46.542Z,73.70
2018-12-17T01:16:49.681Z,73.00
2018-12-17T01:21:52.320Z,73.10
2018-12-17T01:26:54.882Z,73.30
2018-12-17T01:31:57.680Z,73.30
2018-12-17T01:37:00.648Z,73.40
2018-12-17T01:42:03.204Z,73.00
2018-12-17T01:47:06.241Z,72.70
2018-12-17T01:52:09.693Z,73.00
2018-12-17T01:57:12.665Z,73.20
2018-12-17T02:02:18.498Z,73.00
2018-12-17T02:07:24.418Z,72.90
2018-12-17T02:12:27.005Z,73.10
2018-12-17T02:17:30.053Z,72.70
2018-12-17T02:22:32.610Z,73.10
2018-12-17T02:27:36.296Z,73.30
2018-12-17T02:32:39.492Z,73.70
2018-12-17T02:37:42.050Z,73.80
2018-12-17T02:42:44.619Z,74.20
2018-12-17T02:47:47.183Z,74.00
2018-12-17T02:52:49.767Z,73.70
2018-12-17T02:57:52.330Z,74.10
2018-12-17T03:02:54.900Z,74.30
2018-12-17T03:07:58.003Z,74.10
2018-12-17T03:13:00.550Z,74.20
2018-12-17T03:18:05.782Z,73.90
2018-12-17T03:23:08.341Z,74.80
2018-12-17T03:28:11.820Z,75.20
2018-12-17T03:33:14.388Z,75.30
2018-12-17T03:38:19.629Z,75.60
2018-12-17T03:43:24.544Z,74.70
2018-12-17T03:48:27.653Z,74.70
2018-12-17T03:53:30.247Z,76.00
2018-12-17T03:58:32.945Z,75.70
2018-12-17T04:03:35.536Z,75.30
2018-12-17T04:08:38.803Z,76.40
2018-12-17T04:13:47.233Z,77.40
2018-12-17T04:18:49.789Z,78.10
2018-12-17T04:23:52.336Z,77.60
2018-12-17T04:28:56.745Z,77.00
2018-12-17T04:33:59.309Z,77.30
2018-12-17T04:39:01.893Z,77.10
2018-12-17T04:44:04.536Z,76.60
2018-12-17T04:49:07.098Z,76.50
2018-12-17T04:54:09.653Z,76.40
2018-12-17T04:59:14.754Z,75.60
2018-12-17T05:04:18.254Z,75.00
2018-12-17T05:09:21.442Z,75.30
2018-12-17T05:14:24.010Z,76.10
2018-12-17T05:19:26.661Z,78.50
2018-12-17T05:24:31.943Z,79.00
2018-12-17T05:29:34.515Z,78.80
2018-12-17T05:34:37.103Z,78.00
2018-12-17T05:39:39.669Z,76.90
2018-12-17T05:44:42.233Z,76.10
2018-12-17T05:49:45.075Z,76.40
2018-12-17T05:54:47.629Z,76.40
2018-12-17T05:59:50.189Z,76.00
2018-12-17T06:04:52.746Z,76.00
2018-12-17T06:09:55.301Z,75.60
2018-12-17T06:14:57.861Z,75.90
2018-12-17T06:20:00.413Z,75.70
2018-12-17T06:25:03.256Z,75.30
2018-12-17T06:30:05.994Z,75.30
2018-12-17T06:35:08.553Z,75.50
2018-12-17T06:40:12.172Z,75.20
2018-12-17T06:45:14.757Z,75.10
2018-12-17T06:50:19.949Z,75.30
2018-12-17T06:55:22.512Z,75.10
2018-12-17T07:00:25.507Z,75.60
2018-12-17T07:05:28.081Z,75.70
2018-12-17T07:10:30.693Z,75.30
2018-12-17T07:15:33.833Z,74.80
2018-12-17T07:20:36.444Z,74.60
2018-12-17T07:25:39.436Z,74.30
2018-12-17T07:30:42.015Z,74.80
2018-12-17T07:35:44.591Z,74.60
2018-12-17T07:40:47.489Z,74.40
2018-12-17T07:50:57.921Z,74.80
2018-12-17T07:56:00.481Z,74.40
2018-12-17T08:01:03.140Z,73.80
2018-12-17T08:06:06.164Z,73.60
2018-12-17T08:11:08.824Z,74.00
2018-12-17T08:16:12.185Z,74.20
2018-12-17T08:21:17.259Z,74.20
2018-12-17T08:26:21.193Z,74.00
2018-12-17T08:31:23.757Z,73.90
2018-12-17T08:36:26.810Z,74.10
2018-12-17T08:41:32.053Z,74.10
2018-12-17T08:46:34.613Z,74.00
2018-12-17T08:51:37.696Z,73.90
2018-12-17T08:56:42.818Z,74.60
2018-12-17T09:01:45.617Z,75.00
2018-12-17T09:06:51.311Z,74.60
2018-12-17T09:11:54.214Z,74.50
2018-12-17T09:16:58.056Z,74.20
2018-12-17T09:22:01.366Z,74.20
2018-12-17T09:27:03.965Z,73.90
2018-12-17T09:32:06.977Z,73.70
2018-12-17T09:37:10.111Z,73.70
2018-12-17T09:42:19.328Z,73.90
2018-12-17T09:47:21.893Z,73.90
2018-12-17T09:57:32.831Z,73.70
2018-12-17T10:02:35.662Z,73.80
2018-12-17T10:07:38.662Z,73.70
2018-12-17T10:12:41.774Z,73.00
2018-12-17T10:17:44.917Z,73.10
2018-12-17T10:22:49.564Z,72.90
2018-12-17T10:27:55.147Z,73.30
2018-12-17T10:32:58.487Z,73.50
2018-12-17T10:38:01.113Z,73.80
2018-12-17T10:43:03.686Z,73.70
2018-12-17T10:48:06.255Z,73.70
2018-12-17T10:53:09.561Z,73.70
2018-12-17T10:58:12.582Z,73.60
2018-12-17T11:03:15.617Z,73.70
2018-12-17T11:08:18.183Z,73.70
2018-12-17T11:13:21.740Z,73.60
2018-12-17T11:18:24.300Z,73.40
2018-12-17T11:23:26.881Z,72.90
2018-12-17T11:28:31.090Z,72.10
2018-12-17T11:33:33.808Z,72.10
2018-12-17T11:38:37.778Z,72.30
2018-12-17T11:43:43.874Z,72.10
2018-12-17T11:48:45.537Z,71.60
2018-12-17T11:53:48.100Z,71.60
2018-12-17T11:58:51.136Z,71.60
2018-12-17T12:03:53.689Z,71.40
2018-12-17T12:08:58.045Z,71.10
2018-12-17T12:14:01.297Z,70.40
2018-12-17T12:19:03.865Z,70.60
2018-12-17T12:24:07.006Z,70.50
2018-12-17T12:29:09.712Z,70.80
2018-12-17T12:34:15.458Z,70.70
2018-12-17T12:39:18.490Z,70.70
2018-12-17T12:44:21.055Z,70.50
2018-12-17T12:49:24.067Z,71.40
2018-12-17T12:54:28.047Z,72.80
2018-12-17T12:59:30.634Z,73.40
2018-12-17T13:04:34.326Z,73.00
2018-12-17T13:09:37.282Z,71.80
2018-12-17T13:14:40.166Z,71.70
2018-12-17T13:19:43.266Z,71.40
2018-12-17T13:24:45.870Z,72.50
2018-12-17T13:29:48.890Z,73.40
2018-12-17T13:34:52.300Z,73.20
2018-12-17T13:39:55.425Z,74.20
2018-12-17T13:44:58.760Z,73.30
2018-12-17T13:50:03.297Z,73.40
2018-12-17T13:55:05.942Z,73.30
2018-12-17T14:00:11.767Z,72.90
2018-12-17T14:05:15.590Z,73.10
2018-12-17T14:10:25.718Z,73.80
2018-12-17T14:15:30.249Z,74.40
2018-12-17T14:20:38.602Z,74.50
2018-12-17T14:25:41.568Z,73.70
2018-12-17T14:30:44.778Z,74.90
2018-12-17T14:35:53.662Z,75.30
2018-12-17T14:40:56.221Z,75.00
2018-12-17T14:45:59.073Z,73.90
2018-12-17T14:51:01.653Z,73.30
2018-12-17T14:56:05.448Z,73.10
2018-12-17T15:01:08.025Z,73.30
2018-12-17T15:06:10.618Z,73.20
2018-12-17T15:11:13.220Z,73.10
2018-12-17T15:16:15.792Z,73.20
2018-12-17T15:21:18.617Z,73.30
2018-12-17T15:26:21.288Z,73.20
2018-12-17T15:31:26.275Z,74.30
2018-12-17T15:36:29.255Z,74.90
2018-12-17T15:41:38.562Z,74.00
2018-12-17T15:46:41.373Z,74.90
2018-12-17T15:51:44.184Z,74.50
2018-12-17T15:56:47.017Z,74.90
2018-12-17T16:01:50.964Z,73.50
2018-12-17T16:06:53.966Z,73.20
2018-12-17T16:11:56.530Z,73.00
2018-12-17T16:16:59.166Z,73.30
2018-12-17T16:22:01.745Z,72.70
2018-12-17T16:27:04.452Z,72.10
2018-12-17T16:32:07.013Z,71.80
2018-12-17T16:37:09.879Z,71.70
2018-12-17T16:42:12.781Z,71.40
2018-12-17T16:47:15.633Z,71.20
2018-12-17T16:52:18.225Z,72.10
2018-12-17T16:57:21.232Z,71.60
2018-12-17T17:02:23.873Z,72.20
2018-12-17T17:07:27.065Z,73.10
2018-12-17T17:12:29.955Z,73.10
2018-12-17T17:17:33.050Z,72.70
2018-12-17T17:22:35.960Z,72.40
2018-12-17T17:27:38.761Z,73.30
2018-12-17T17:32:41.895Z,73.20
2018-12-17T17:37:44.561Z,73.70
2018-12-17T17:42:47.230Z,73.40
2018-12-17T17:47:50.587Z,73.20
2018-12-17T17:52:53.190Z,72.60
2018-12-17T17:57:56.224Z,72.40
2018-12-17T18:02:59.081Z,72.30
2018-12-17T18:08:01.686Z,72.10
2018-12-17T18:13:04.353Z,71.60
2018-12-17T18:18:07.965Z,71.00
2018-12-17T18:23:10.593Z,71.90
2018-12-17T18:28:13.229Z,71.30
2018-12-17T18:33:16.242Z,71.60
2018-12-17T18:38:18.919Z,73.80
2018-12-17T18:43:21.581Z,75.00
2018-12-17T18:48:24.431Z,74.10
2018-12-17T18:53:27.332Z,73.10
2018-12-17T18:58:30.051Z,72.60
2018-12-17T19:03:33.171Z,73.50
2018-12-17T19:08:35.884Z,72.70
2018-12-17T19:13:38.481Z,72.50
2018-12-17T19:18:42.206Z,71.90
2018-12-17T19:23:44.814Z,71.20
2018-12-17T19:28:47.414Z,71.10
2018-12-17T19:33:50.034Z,72.10
2018-12-17T19:38:52.677Z,71.80
2018-12-17T19:43:55.517Z,72.10
2018-12-17T19:48:58.103Z,72.50
2018-12-17T19:54:00.698Z,71.90
2018-12-17T19:59:03.656Z,71.70
2018-12-17T20:04:16.048Z,71.90
2018-12-17T20:09:18.692Z,71.80
2018-12-17T20:14:21.756Z,72.40
2018-12-17T20:19:24.367Z,72.20
2018-12-17T20:24:26.954Z,72.40
2018-12-17T20:29:29.544Z,72.50
2018-12-17T20:34:32.157Z,72.70
2018-12-17T20:39:34.789Z,72.40
2018-12-17T20:44:37.379Z,72.60
2018-12-17T20:49:40.485Z,72.70
2018-12-17T20:54:43.429Z,72.80
2018-12-17T20:59:46.888Z,73.80
2018-12-17T21:04:49.457Z,73.50
2018-12-17T21:09:52.505Z,73.40
2018-12-17T21:14:55.125Z,73.30
2018-12-17T21:19:59.612Z,73.00
2018-12-17T21:25:02.756Z,73.00
2018-12-17T21:30:06.682Z,73.30
2018-12-17T21:35:09.300Z,73.40
2018-12-17T21:40:12.522Z,73.50
2018-12-17T21:45:15.204Z,73.40
2018-12-17T21:50:18.233Z,73.50
2018-12-17T21:55:21.650Z,73.10
2018-12-17T22:00:25.672Z,72.20
2018-12-17T22:05:34.877Z,72.00
2018-12-17T22:10:38.121Z,72.10
2018-12-17T22:15:40.833Z,72.10
2018-12-17T22:20:43.417Z,72.20
2018-12-17T22:25:46.662Z,72.20
2018-12-17T22:30:50.969Z,72.80
2018-12-17T22:35:53.555Z,72.30
2018-12-17T22:40:56.840Z,72.50
2018-12-17T22:45:59.429Z,72.80
2018-12-17T22:51:02.007Z,73.10
2018-12-17T22:56:06.525Z,72.40
2018-12-17T23:01:11.917Z,72.20
2018-12-17T23:06:14.486Z,72.00
2018-12-17T23:11:28.978Z,72.40
2018-12-17T23:16:44.378Z,72.50
2018-12-17T23:21:49.413Z,73.10
2018-12-17T23:26:52.055Z,72.70
2018-12-17T23:31:55.786Z,72.80
2018-12-17T23:36:59.497Z,72.70
2018-12-17T23:42:02.537Z,73.00
2018-12-17T23:47:08.307Z,72.90
2018-12-17T23:52:10.889Z,72.70
2018-12-17T23:57:13.456Z,72.60
